sensor_id;sensor_type;location;lat;lon;timestamp;P1;durP1;ratioP1;P2;durP2;ratioP2
64029;SDS011;50277;52.064;4.492;2022-08-19T00:01:09;5.75;;;3.65;;
64029;SDS011;50277;52.064;4.492;2022-08-19T00:03:34;5.57;;;3.60;;
64029;SDS011;50277;52.064;4.492;2022-08-19T00:06:00;7.57;;;3.60;;
64029;SDS011;50277;52.064;4.492;2022-08-19T00:08:25;4.18;;;3.30;;
64029;SDS011;50277;52.064;4.492;2022-08-19T00:10:50;9.32;;;3.65;;
64029;SDS011;50277;52.064;4.492;2022-08-19T00:13:16;8.40;;;3.60;;
64029;SDS011;50277;52.064;4.492;2022-08-19T00:15:41;6.15;;;3.17;;
64029;SDS011;50277;52.064;4.492;2022-08-19T00:18:09;4.50;;;3.20;;
64029;SDS011;50277;52.064;4.492;2022-08-19T00:20:35;7.85;;;3.63;;
64029;SDS011;50277;52.064;4.492;2022-08-19T00:23:00;6.00;;;3.80;;
64029;SDS011;50277;52.064;4.492;2022-08-19T00:25:25;7.78;;;4.35;;
64029;SDS011;50277;52.064;4.492;2022-08-19T00:27:51;7.53;;;4.30;;
64029;SDS011;50277;52.064;4.492;2022-08-19T00:30:16;5.68;;;4.28;;
64029;SDS011;50277;52.064;4.492;2022-08-19T00:32:41;5.85;;;4.30;;
64029;SDS011;50277;52.064;4.492;2022-08-19T00:35:07;8.48;;;4.28;;
64029;SDS011;50277;52.064;4.492;2022-08-19T00:37:34;7.82;;;4.32;;
64029;SDS011;50277;52.064;4.492;2022-08-19T00:40:00;6.75;;;4.07;;
64029;SDS011;50277;52.064;4.492;2022-08-19T00:42:26;7.63;;;4.47;;
64029;SDS011;50277;52.064;4.492;2022-08-19T00:44:53;8.63;;;4.10;;
64029;SDS011;50277;52.064;4.492;2022-08-19T00:47:18;6.90;;;4.03;;
64029;SDS011;50277;52.064;4.492;2022-08-19T00:49:45;6.32;;;4.45;;
64029;SDS011;50277;52.064;4.492;2022-08-19T00:52:35;8.57;;;5.30;;
64029;SDS011;50277;52.064;4.492;2022-08-19T00:55:02;9.02;;;6.22;;
64029;SDS011;50277;52.064;4.492;2022-08-19T00:57:31;8.13;;;6.68;;
64029;SDS011;50277;52.064;4.492;2022-08-19T00:59:59;9.13;;;7.07;;
64029;SDS011;50277;52.064;4.492;2022-08-19T01:02:25;8.90;;;7.68;;
64029;SDS011;50277;52.064;4.492;2022-08-19T01:04:52;11.70;;;7.82;;
64029;SDS011;50277;52.064;4.492;2022-08-19T01:07:18;13.38;;;8.38;;
64029;SDS011;50277;52.064;4.492;2022-08-19T01:09:43;10.77;;;7.90;;
64029;SDS011;50277;52.064;4.492;2022-08-19T01:12:09;9.38;;;7.78;;
64029;SDS011;50277;52.064;4.492;2022-08-19T01:14:34;10.38;;;8.23;;
64029;SDS011;50277;52.064;4.492;2022-08-19T01:17:01;9.07;;;7.25;;
64029;SDS011;50277;52.064;4.492;2022-08-19T01:19:28;11.15;;;7.40;;
64029;SDS011;50277;52.064;4.492;2022-08-19T01:22:18;9.45;;;7.00;;
64029;SDS011;50277;52.064;4.492;2022-08-19T01:24:47;9.32;;;7.68;;
64029;SDS011;50277;52.064;4.492;2022-08-19T01:27:13;10.68;;;7.50;;
64029;SDS011;50277;52.064;4.492;2022-08-19T01:29:39;11.02;;;8.43;;
64029;SDS011;50277;52.064;4.492;2022-08-19T01:32:07;9.02;;;8.07;;
64029;SDS011;50277;52.064;4.492;2022-08-19T01:34:35;11.27;;;7.80;;
64029;SDS011;50277;52.064;4.492;2022-08-19T01:37:01;15.70;;;9.27;;
64029;SDS011;50277;52.064;4.492;2022-08-19T01:39:32;13.82;;;9.82;;
64029;SDS011;50277;52.064;4.492;2022-08-19T01:41:58;8.70;;;7.75;;
64029;SDS011;50277;52.064;4.492;2022-08-19T01:44:23;10.85;;;8.00;;
64029;SDS011;50277;52.064;4.492;2022-08-19T01:46:49;9.85;;;7.93;;
64029;SDS011;50277;52.064;4.492;2022-08-19T01:49:16;12.43;;;8.30;;
64029;SDS011;50277;52.064;4.492;2022-08-19T01:51:43;10.98;;;8.23;;
64029;SDS011;50277;52.064;4.492;2022-08-19T01:54:09;11.25;;;9.15;;
64029;SDS011;50277;52.064;4.492;2022-08-19T01:56:35;14.18;;;10.57;;
64029;SDS011;50277;52.064;4.492;2022-08-19T01:59:02;17.73;;;15.13;;
64029;SDS011;50277;52.064;4.492;2022-08-19T02:01:30;15.65;;;13.38;;
64029;SDS011;50277;52.064;4.492;2022-08-19T02:03:57;17.50;;;15.20;;
64029;SDS011;50277;52.064;4.492;2022-08-19T02:06:23;17.83;;;13.88;;
64029;SDS011;50277;52.064;4.492;2022-08-19T02:08:48;19.02;;;14.02;;
64029;SDS011;50277;52.064;4.492;2022-08-19T02:11:21;19.20;;;15.55;;
64029;SDS011;50277;52.064;4.492;2022-08-19T02:13:55;19.83;;;17.08;;
64029;SDS011;50277;52.064;4.492;2022-08-19T02:16:20;21.23;;;16.00;;
64029;SDS011;50277;52.064;4.492;2022-08-19T02:18:46;21.17;;;16.33;;
64029;SDS011;50277;52.064;4.492;2022-08-19T02:21:13;22.35;;;16.63;;
64029;SDS011;50277;52.064;4.492;2022-08-19T02:23:42;23.50;;;20.75;;
64029;SDS011;50277;52.064;4.492;2022-08-19T02:26:08;24.88;;;18.55;;
64029;SDS011;50277;52.064;4.492;2022-08-19T02:28:34;28.20;;;19.67;;
64029;SDS011;50277;52.064;4.492;2022-08-19T02:30:59;25.38;;;19.20;;
64029;SDS011;50277;52.064;4.492;2022-08-19T02:33:27;28.23;;;19.63;;
64029;SDS011;50277;52.064;4.492;2022-08-19T02:35:52;28.17;;;22.58;;
64029;SDS011;50277;52.064;4.492;2022-08-19T02:38:17;27.85;;;20.33;;
64029;SDS011;50277;52.064;4.492;2022-08-19T02:41:02;30.30;;;21.77;;
64029;SDS011;50277;52.064;4.492;2022-08-19T02:43:30;25.80;;;19.25;;
64029;SDS011;50277;52.064;4.492;2022-08-19T02:45:56;25.05;;;19.05;;
64029;SDS011;50277;52.064;4.492;2022-08-19T02:48:23;34.67;;;20.42;;
64029;SDS011;50277;52.064;4.492;2022-08-19T02:50:50;27.38;;;21.35;;
64029;SDS011;50277;52.064;4.492;2022-08-19T02:53:18;34.90;;;21.45;;
64029;SDS011;50277;52.064;4.492;2022-08-19T02:55:46;23.25;;;18.63;;
64029;SDS011;50277;52.064;4.492;2022-08-19T02:58:13;21.27;;;17.88;;
64029;SDS011;50277;52.064;4.492;2022-08-19T03:00:46;21.13;;;17.27;;
64029;SDS011;50277;52.064;4.492;2022-08-19T03:03:14;24.02;;;19.25;;
64029;SDS011;50277;52.064;4.492;2022-08-19T03:05:40;27.45;;;21.73;;
64029;SDS011;50277;52.064;4.492;2022-08-19T03:08:06;24.63;;;20.13;;
64029;SDS011;50277;52.064;4.492;2022-08-19T03:10:32;29.15;;;22.25;;
64029;SDS011;50277;52.064;4.492;2022-08-19T03:12:58;26.20;;;20.17;;
64029;SDS011;50277;52.064;4.492;2022-08-19T03:15:23;28.17;;;21.40;;
64029;SDS011;50277;52.064;4.492;2022-08-19T03:17:49;30.00;;;22.67;;
64029;SDS011;50277;52.064;4.492;2022-08-19T03:20:14;32.58;;;22.30;;
64029;SDS011;50277;52.064;4.492;2022-08-19T03:22:40;31.33;;;23.55;;
64029;SDS011;50277;52.064;4.492;2022-08-19T03:25:05;26.08;;;19.77;;
64029;SDS011;50277;52.064;4.492;2022-08-19T03:27:30;31.90;;;22.58;;
64029;SDS011;50277;52.064;4.492;2022-08-19T03:29:56;28.88;;;21.45;;
64029;SDS011;50277;52.064;4.492;2022-08-19T03:32:21;38.22;;;24.10;;
64029;SDS011;50277;52.064;4.492;2022-08-19T03:34:47;32.95;;;23.48;;
64029;SDS011;50277;52.064;4.492;2022-08-19T03:37:12;34.70;;;24.63;;
64029;SDS011;50277;52.064;4.492;2022-08-19T03:39:38;32.65;;;23.88;;
64029;SDS011;50277;52.064;4.492;2022-08-19T03:42:04;26.15;;;20.52;;
64029;SDS011;50277;52.064;4.492;2022-08-19T03:44:30;30.30;;;22.02;;
64029;SDS011;50277;52.064;4.492;2022-08-19T03:46:57;35.58;;;24.98;;
64029;SDS011;50277;52.064;4.492;2022-08-19T03:49:25;32.10;;;22.48;;
64029;SDS011;50277;52.064;4.492;2022-08-19T03:51:52;32.10;;;23.05;;
64029;SDS011;50277;52.064;4.492;2022-08-19T03:54:19;34.30;;;24.90;;
64029;SDS011;50277;52.064;4.492;2022-08-19T03:56:47;37.65;;;25.77;;
64029;SDS011;50277;52.064;4.492;2022-08-19T03:59:14;34.33;;;26.17;;
64029;SDS011;50277;52.064;4.492;2022-08-19T04:04:07;33.90;;;23.13;;
64029;SDS011;50277;52.064;4.492;2022-08-19T04:06:34;37.47;;;25.60;;
64029;SDS011;50277;52.064;4.492;2022-08-19T04:09:01;37.93;;;27.37;;
64029;SDS011;50277;52.064;4.492;2022-08-19T04:11:31;35.40;;;26.10;;
64029;SDS011;50277;52.064;4.492;2022-08-19T04:13:59;37.63;;;25.77;;
64029;SDS011;50277;52.064;4.492;2022-08-19T04:16:25;36.15;;;25.85;;
64029;SDS011;50277;52.064;4.492;2022-08-19T04:18:54;37.50;;;26.30;;
64029;SDS011;50277;52.064;4.492;2022-08-19T04:21:22;38.65;;;27.52;;
64029;SDS011;50277;52.064;4.492;2022-08-19T04:23:49;41.65;;;28.10;;
64029;SDS011;50277;52.064;4.492;2022-08-19T04:26:15;43.35;;;30.90;;
64029;SDS011;50277;52.064;4.492;2022-08-19T04:28:42;48.30;;;31.83;;
64029;SDS011;50277;52.064;4.492;2022-08-19T04:31:12;45.95;;;32.97;;
64029;SDS011;50277;52.064;4.492;2022-08-19T04:33:42;54.05;;;34.25;;
64029;SDS011;50277;52.064;4.492;2022-08-19T04:36:08;42.40;;;28.88;;
64029;SDS011;50277;52.064;4.492;2022-08-19T04:38:41;52.00;;;33.22;;
64029;SDS011;50277;52.064;4.492;2022-08-19T04:41:06;45.78;;;31.67;;
64029;SDS011;50277;52.064;4.492;2022-08-19T04:43:50;51.35;;;32.80;;
64029;SDS011;50277;52.064;4.492;2022-08-19T04:46:16;50.83;;;31.80;;
64029;SDS011;50277;52.064;4.492;2022-08-19T04:48:42;50.63;;;33.00;;
64029;SDS011;50277;52.064;4.492;2022-08-19T04:51:09;53.85;;;34.13;;
64029;SDS011;50277;52.064;4.492;2022-08-19T04:53:37;56.57;;;33.60;;
64029;SDS011;50277;52.064;4.492;2022-08-19T04:56:20;54.42;;;34.50;;
64029;SDS011;50277;52.064;4.492;2022-08-19T04:58:47;58.03;;;36.30;;
64029;SDS011;50277;52.064;4.492;2022-08-19T05:01:16;58.47;;;32.85;;
64029;SDS011;50277;52.064;4.492;2022-08-19T05:03:43;54.42;;;32.83;;
64029;SDS011;50277;52.064;4.492;2022-08-19T05:06:10;54.25;;;31.85;;
64029;SDS011;50277;52.064;4.492;2022-08-19T05:08:38;41.33;;;28.58;;
64029;SDS011;50277;52.064;4.492;2022-08-19T05:11:14;49.28;;;32.60;;
64029;SDS011;50277;52.064;4.492;2022-08-19T05:13:45;56.38;;;31.73;;
64029;SDS011;50277;52.064;4.492;2022-08-19T05:16:12;51.85;;;31.90;;
64029;SDS011;50277;52.064;4.492;2022-08-19T05:18:38;67.72;;;35.45;;
64029;SDS011;50277;52.064;4.492;2022-08-19T05:21:22;52.92;;;31.15;;
64029;SDS011;50277;52.064;4.492;2022-08-19T05:24:07;52.28;;;30.02;;
64029;SDS011;50277;52.064;4.492;2022-08-19T05:26:39;56.90;;;33.38;;
64029;SDS011;50277;52.064;4.492;2022-08-19T05:29:06;50.90;;;31.83;;
64029;SDS011;50277;52.064;4.492;2022-08-19T05:31:35;59.33;;;33.17;;
64029;SDS011;50277;52.064;4.492;2022-08-19T05:34:01;54.95;;;30.80;;
64029;SDS011;50277;52.064;4.492;2022-08-19T05:36:28;48.83;;;28.98;;
64029;SDS011;50277;52.064;4.492;2022-08-19T05:38:59;55.00;;;32.80;;
64029;SDS011;50277;52.064;4.492;2022-08-19T05:41:25;50.25;;;30.13;;
64029;SDS011;50277;52.064;4.492;2022-08-19T05:43:54;45.65;;;29.40;;
64029;SDS011;50277;52.064;4.492;2022-08-19T05:46:20;50.58;;;28.80;;
64029;SDS011;50277;52.064;4.492;2022-08-19T05:48:46;49.53;;;28.85;;
64029;SDS011;50277;52.064;4.492;2022-08-19T05:51:11;47.75;;;28.35;;
64029;SDS011;50277;52.064;4.492;2022-08-19T05:53:37;55.78;;;29.52;;
64029;SDS011;50277;52.064;4.492;2022-08-19T05:56:04;45.80;;;27.38;;
64029;SDS011;50277;52.064;4.492;2022-08-19T05:58:30;48.63;;;26.00;;
64029;SDS011;50277;52.064;4.492;2022-08-19T06:00:57;47.25;;;27.38;;
64029;SDS011;50277;52.064;4.492;2022-08-19T06:03:22;45.47;;;27.65;;
64029;SDS011;50277;52.064;4.492;2022-08-19T06:05:48;43.38;;;26.85;;
64029;SDS011;50277;52.064;4.492;2022-08-19T06:08:14;41.53;;;25.15;;
64029;SDS011;50277;52.064;4.492;2022-08-19T06:10:39;41.67;;;24.50;;
64029;SDS011;50277;52.064;4.492;2022-08-19T06:13:04;50.05;;;25.40;;
64029;SDS011;50277;52.064;4.492;2022-08-19T06:15:30;53.92;;;29.17;;
64029;SDS011;50277;52.064;4.492;2022-08-19T06:17:56;38.78;;;23.98;;
64029;SDS011;50277;52.064;4.492;2022-08-19T06:20:21;35.97;;;22.63;;
64029;SDS011;50277;52.064;4.492;2022-08-19T06:22:47;36.67;;;23.00;;
64029;SDS011;50277;52.064;4.492;2022-08-19T06:25:16;41.17;;;24.00;;
64029;SDS011;50277;52.064;4.492;2022-08-19T06:27:42;42.92;;;25.73;;
64029;SDS011;50277;52.064;4.492;2022-08-19T06:30:08;42.20;;;25.98;;
64029;SDS011;50277;52.064;4.492;2022-08-19T06:32:35;38.50;;;21.83;;
64029;SDS011;50277;52.064;4.492;2022-08-19T06:35:00;34.33;;;22.50;;
64029;SDS011;50277;52.064;4.492;2022-08-19T06:37:25;40.55;;;21.92;;
64029;SDS011;50277;52.064;4.492;2022-08-19T06:39:51;39.78;;;23.42;;
64029;SDS011;50277;52.064;4.492;2022-08-19T06:42:16;31.85;;;22.27;;
64029;SDS011;50277;52.064;4.492;2022-08-19T06:44:45;34.22;;;21.02;;
64029;SDS011;50277;52.064;4.492;2022-08-19T06:47:15;31.60;;;20.33;;
64029;SDS011;50277;52.064;4.492;2022-08-19T06:49:42;35.00;;;21.65;;
64029;SDS011;50277;52.064;4.492;2022-08-19T06:52:08;30.98;;;20.23;;
64029;SDS011;50277;52.064;4.492;2022-08-19T06:54:36;32.90;;;20.52;;
64029;SDS011;50277;52.064;4.492;2022-08-19T06:57:02;28.77;;;17.70;;
64029;SDS011;50277;52.064;4.492;2022-08-19T06:59:29;30.90;;;16.65;;
64029;SDS011;50277;52.064;4.492;2022-08-19T07:01:57;32.42;;;20.63;;
64029;SDS011;50277;52.064;4.492;2022-08-19T07:04:25;30.52;;;18.70;;
64029;SDS011;50277;52.064;4.492;2022-08-19T07:06:57;34.65;;;18.63;;
64029;SDS011;50277;52.064;4.492;2022-08-19T07:09:24;38.38;;;18.92;;
64029;SDS011;50277;52.064;4.492;2022-08-19T07:11:50;27.85;;;18.30;;
64029;SDS011;50277;52.064;4.492;2022-08-19T07:14:18;22.83;;;15.95;;
64029;SDS011;50277;52.064;4.492;2022-08-19T07:16:47;28.70;;;14.90;;
64029;SDS011;50277;52.064;4.492;2022-08-19T07:19:15;24.27;;;16.02;;
64029;SDS011;50277;52.064;4.492;2022-08-19T07:21:41;30.33;;;17.88;;
64029;SDS011;50277;52.064;4.492;2022-08-19T07:24:07;24.90;;;16.42;;
64029;SDS011;50277;52.064;4.492;2022-08-19T07:26:33;28.45;;;18.02;;
64029;SDS011;50277;52.064;4.492;2022-08-19T07:29:06;24.17;;;17.63;;
64029;SDS011;50277;52.064;4.492;2022-08-19T07:31:32;26.45;;;14.75;;
64029;SDS011;50277;52.064;4.492;2022-08-19T07:34:01;26.67;;;15.98;;
64029;SDS011;50277;52.064;4.492;2022-08-19T07:36:28;23.97;;;14.87;;
64029;SDS011;50277;52.064;4.492;2022-08-19T07:38:57;22.75;;;14.35;;
64029;SDS011;50277;52.064;4.492;2022-08-19T07:41:24;27.02;;;16.02;;
64029;SDS011;50277;52.064;4.492;2022-08-19T07:43:51;23.50;;;14.30;;
64029;SDS011;50277;52.064;4.492;2022-08-19T07:46:18;23.55;;;14.20;;
64029;SDS011;50277;52.064;4.492;2022-08-19T07:48:45;23.07;;;13.47;;
64029;SDS011;50277;52.064;4.492;2022-08-19T07:51:15;25.52;;;16.23;;
64029;SDS011;50277;52.064;4.492;2022-08-19T07:53:42;26.40;;;14.48;;
64029;SDS011;50277;52.064;4.492;2022-08-19T07:56:09;27.15;;;14.90;;
64029;SDS011;50277;52.064;4.492;2022-08-19T07:58:37;23.17;;;16.08;;
64029;SDS011;50277;52.064;4.492;2022-08-19T08:01:05;30.52;;;15.57;;
64029;SDS011;50277;52.064;4.492;2022-08-19T08:03:32;28.58;;;15.60;;
64029;SDS011;50277;52.064;4.492;2022-08-19T08:06:16;25.10;;;15.52;;
64029;SDS011;50277;52.064;4.492;2022-08-19T08:09:01;24.67;;;14.25;;
64029;SDS011;50277;52.064;4.492;2022-08-19T08:11:42;25.73;;;14.07;;
64029;SDS011;50277;52.064;4.492;2022-08-19T08:14:19;33.33;;;16.33;;
64029;SDS011;50277;52.064;4.492;2022-08-19T08:16:49;25.27;;;14.75;;
64029;SDS011;50277;52.064;4.492;2022-08-19T08:19:17;24.13;;;13.68;;
64029;SDS011;50277;52.064;4.492;2022-08-19T08:21:46;27.65;;;11.80;;
64029;SDS011;50277;52.064;4.492;2022-08-19T08:24:13;21.73;;;11.27;;
64029;SDS011;50277;52.064;4.492;2022-08-19T08:26:39;16.55;;;10.52;;
64029;SDS011;50277;52.064;4.492;2022-08-19T08:29:04;22.08;;;13.13;;
64029;SDS011;50277;52.064;4.492;2022-08-19T08:31:30;20.73;;;11.85;;
64029;SDS011;50277;52.064;4.492;2022-08-19T08:33:55;16.38;;;10.65;;
64029;SDS011;50277;52.064;4.492;2022-08-19T08:36:21;22.85;;;10.60;;
64029;SDS011;50277;52.064;4.492;2022-08-19T08:38:46;16.23;;;9.80;;
64029;SDS011;50277;52.064;4.492;2022-08-19T08:43:44;17.60;;;9.02;;
64029;SDS011;50277;52.064;4.492;2022-08-19T08:51:51;18.52;;;8.10;;
64029;SDS011;50277;52.064;4.492;2022-08-19T08:54:20;12.75;;;7.43;;
64029;SDS011;50277;52.064;4.492;2022-08-19T08:56:49;14.85;;;7.65;;
64029;SDS011;50277;52.064;4.492;2022-08-19T08:59:20;11.77;;;6.60;;
64029;SDS011;50277;52.064;4.492;2022-08-19T09:01:58;17.30;;;7.32;;
64029;SDS011;50277;52.064;4.492;2022-08-19T09:04:24;13.75;;;6.30;;
64029;SDS011;50277;52.064;4.492;2022-08-19T09:09:52;9.85;;;6.03;;
64029;SDS011;50277;52.064;4.492;2022-08-19T09:14:53;14.40;;;5.40;;
64029;SDS011;50277;52.064;4.492;2022-08-19T09:17:26;12.35;;;5.55;;
64029;SDS011;50277;52.064;4.492;2022-08-19T09:22:21;10.15;;;5.93;;
64029;SDS011;50277;52.064;4.492;2022-08-19T09:24:50;17.42;;;6.15;;
64029;SDS011;50277;52.064;4.492;2022-08-19T09:27:17;7.22;;;5.15;;
64029;SDS011;50277;52.064;4.492;2022-08-19T09:29:43;10.27;;;4.60;;
64029;SDS011;50277;52.064;4.492;2022-08-19T09:32:09;10.05;;;4.50;;
64029;SDS011;50277;52.064;4.492;2022-08-19T09:34:34;11.02;;;4.38;;
64029;SDS011;50277;52.064;4.492;2022-08-19T09:37:00;10.73;;;5.03;;
64029;SDS011;50277;52.064;4.492;2022-08-19T09:39:26;8.57;;;4.43;;
64029;SDS011;50277;52.064;4.492;2022-08-19T09:41:51;10.88;;;4.78;;
64029;SDS011;50277;52.064;4.492;2022-08-19T09:44:17;7.80;;;4.47;;
64029;SDS011;50277;52.064;4.492;2022-08-19T09:46:45;9.30;;;3.97;;
64029;SDS011;50277;52.064;4.492;2022-08-19T09:49:12;8.88;;;4.25;;
64029;SDS011;50277;52.064;4.492;2022-08-19T09:51:37;9.05;;;4.55;;
64029;SDS011;50277;52.064;4.492;2022-08-19T09:54:03;10.10;;;4.10;;
64029;SDS011;50277;52.064;4.492;2022-08-19T09:56:29;6.55;;;3.95;;
64029;SDS011;50277;52.064;4.492;2022-08-19T09:58:56;11.05;;;4.30;;
64029;SDS011;50277;52.064;4.492;2022-08-19T10:03:49;6.07;;;3.80;;
64029;SDS011;50277;52.064;4.492;2022-08-19T10:06:17;9.77;;;4.35;;
64029;SDS011;50277;52.064;4.492;2022-08-19T10:08:44;5.35;;;3.85;;
64029;SDS011;50277;52.064;4.492;2022-08-19T10:11:10;12.18;;;4.47;;
64029;SDS011;50277;52.064;4.492;2022-08-19T10:13:36;9.10;;;4.28;;
64029;SDS011;50277;52.064;4.492;2022-08-19T10:16:03;7.05;;;3.83;;
64029;SDS011;50277;52.064;4.492;2022-08-19T10:18:31;8.75;;;3.78;;
64029;SDS011;50277;52.064;4.492;2022-08-19T10:23:37;7.05;;;3.75;;
64029;SDS011;50277;52.064;4.492;2022-08-19T10:26:06;4.73;;;3.03;;
64029;SDS011;50277;52.064;4.492;2022-08-19T10:28:33;10.18;;;4.20;;
64029;SDS011;50277;52.064;4.492;2022-08-19T10:31:02;5.97;;;3.40;;
64029;SDS011;50277;52.064;4.492;2022-08-19T10:33:29;4.75;;;3.53;;
64029;SDS011;50277;52.064;4.492;2022-08-19T10:35:59;5.93;;;3.67;;
64029;SDS011;50277;52.064;4.492;2022-08-19T10:38:26;6.82;;;3.35;;
64029;SDS011;50277;52.064;4.492;2022-08-19T10:40:51;10.93;;;3.53;;
64029;SDS011;50277;52.064;4.492;2022-08-19T10:43:18;6.43;;;3.40;;
64029;SDS011;50277;52.064;4.492;2022-08-19T10:45:43;4.97;;;3.42;;
64029;SDS011;50277;52.064;4.492;2022-08-19T10:48:16;5.50;;;2.97;;
64029;SDS011;50277;52.064;4.492;2022-08-19T10:50:42;6.30;;;3.15;;
64029;SDS011;50277;52.064;4.492;2022-08-19T10:53:25;5.80;;;3.22;;
64029;SDS011;50277;52.064;4.492;2022-08-19T10:55:51;3.75;;;2.60;;
64029;SDS011;50277;52.064;4.492;2022-08-19T10:58:35;3.05;;;2.75;;
64029;SDS011;50277;52.064;4.492;2022-08-19T11:01:00;5.75;;;3.08;;
64029;SDS011;50277;52.064;4.492;2022-08-19T11:03:26;3.80;;;2.55;;
64029;SDS011;50277;52.064;4.492;2022-08-19T11:06:00;4.68;;;2.40;;
64029;SDS011;50277;52.064;4.492;2022-08-19T11:08:28;7.57;;;2.45;;
64029;SDS011;50277;52.064;4.492;2022-08-19T11:10:55;2.97;;;2.20;;
64029;SDS011;50277;52.064;4.492;2022-08-19T11:13:25;4.57;;;2.33;;
64029;SDS011;50277;52.064;4.492;2022-08-19T11:16:02;6.80;;;2.35;;
64029;SDS011;50277;52.064;4.492;2022-08-19T11:18:29;4.05;;;2.55;;
64029;SDS011;50277;52.064;4.492;2022-08-19T11:20:54;2.60;;;2.40;;
64029;SDS011;50277;52.064;4.492;2022-08-19T11:23:20;6.93;;;3.15;;
64029;SDS011;50277;52.064;4.492;2022-08-19T11:25:45;2.85;;;2.20;;
64029;SDS011;50277;52.064;4.492;2022-08-19T11:28:11;4.13;;;2.17;;
64029;SDS011;50277;52.064;4.492;2022-08-19T11:30:37;3.30;;;2.30;;
64029;SDS011;50277;52.064;4.492;2022-08-19T11:33:03;4.05;;;2.22;;
64029;SDS011;50277;52.064;4.492;2022-08-19T11:35:29;4.57;;;2.25;;
64029;SDS011;50277;52.064;4.492;2022-08-19T11:37:54;2.88;;;1.90;;
64029;SDS011;50277;52.064;4.492;2022-08-19T11:40:21;15.63;;;2.17;;
64029;SDS011;50277;52.064;4.492;2022-08-19T11:42:46;5.03;;;2.45;;
64029;SDS011;50277;52.064;4.492;2022-08-19T11:45:21;5.20;;;2.50;;
64029;SDS011;50277;52.064;4.492;2022-08-19T11:47:50;6.10;;;2.10;;
64029;SDS011;50277;52.064;4.492;2022-08-19T11:50:15;4.05;;;1.98;;
64029;SDS011;50277;52.064;4.492;2022-08-19T11:52:41;1.90;;;1.80;;
64029;SDS011;50277;52.064;4.492;2022-08-19T11:55:07;5.20;;;2.42;;
64029;SDS011;50277;52.064;4.492;2022-08-19T11:57:32;3.53;;;2.20;;
64029;SDS011;50277;52.064;4.492;2022-08-19T11:59:58;5.28;;;2.45;;
64029;SDS011;50277;52.064;4.492;2022-08-19T12:02:23;5.97;;;2.58;;
64029;SDS011;50277;52.064;4.492;2022-08-19T12:04:48;3.47;;;2.20;;
64029;SDS011;50277;52.064;4.492;2022-08-19T12:07:14;2.58;;;2.00;;
64029;SDS011;50277;52.064;4.492;2022-08-19T12:09:40;3.55;;;2.17;;
64029;SDS011;50277;52.064;4.492;2022-08-19T12:12:05;4.97;;;2.40;;
64029;SDS011;50277;52.064;4.492;2022-08-19T12:14:31;5.70;;;2.70;;
64029;SDS011;50277;52.064;4.492;2022-08-19T12:16:57;5.13;;;2.47;;
64029;SDS011;50277;52.064;4.492;2022-08-19T12:19:22;4.13;;;2.40;;
64029;SDS011;50277;52.064;4.492;2022-08-19T12:21:49;3.03;;;2.22;;
64029;SDS011;50277;52.064;4.492;2022-08-19T12:24:15;4.43;;;2.20;;
64029;SDS011;50277;52.064;4.492;2022-08-19T12:26:45;3.90;;;2.70;;
64029;SDS011;50277;52.064;4.492;2022-08-19T12:29:10;3.40;;;2.15;;
64029;SDS011;50277;52.064;4.492;2022-08-19T12:31:36;5.78;;;2.92;;
64029;SDS011;50277;52.064;4.492;2022-08-19T12:34:01;2.97;;;2.25;;
64029;SDS011;50277;52.064;4.492;2022-08-19T12:36:27;4.85;;;2.50;;
64029;SDS011;50277;52.064;4.492;2022-08-19T12:38:52;2.63;;;2.22;;
64029;SDS011;50277;52.064;4.492;2022-08-19T12:41:18;3.90;;;2.42;;
64029;SDS011;50277;52.064;4.492;2022-08-19T12:43:44;3.50;;;2.28;;
64029;SDS011;50277;52.064;4.492;2022-08-19T12:46:10;3.03;;;2.38;;
64029;SDS011;50277;52.064;4.492;2022-08-19T12:48:36;4.35;;;2.40;;
64029;SDS011;50277;52.064;4.492;2022-08-19T12:51:08;6.40;;;2.60;;
64029;SDS011;50277;52.064;4.492;2022-08-19T12:53:35;3.03;;;2.70;;
64029;SDS011;50277;52.064;4.492;2022-08-19T12:56:01;5.30;;;2.83;;
64029;SDS011;50277;52.064;4.492;2022-08-19T12:58:26;4.05;;;2.30;;
64029;SDS011;50277;52.064;4.492;2022-08-19T13:00:53;2.42;;;2.20;;
64029;SDS011;50277;52.064;4.492;2022-08-19T13:03:19;3.22;;;2.28;;
64029;SDS011;50277;52.064;4.492;2022-08-19T13:05:44;4.15;;;2.50;;
64029;SDS011;50277;52.064;4.492;2022-08-19T13:08:09;2.40;;;2.20;;
64029;SDS011;50277;52.064;4.492;2022-08-19T13:10:36;3.25;;;2.53;;
64029;SDS011;50277;52.064;4.492;2022-08-19T13:13:05;2.65;;;2.22;;
64029;SDS011;50277;52.064;4.492;2022-08-19T13:15:36;5.25;;;2.80;;
64029;SDS011;50277;52.064;4.492;2022-08-19T13:18:04;3.72;;;2.33;;
64029;SDS011;50277;52.064;4.492;2022-08-19T13:20:29;3.47;;;2.40;;
64029;SDS011;50277;52.064;4.492;2022-08-19T13:22:55;6.95;;;2.47;;
64029;SDS011;50277;52.064;4.492;2022-08-19T13:25:22;4.40;;;2.40;;
64029;SDS011;50277;52.064;4.492;2022-08-19T13:27:48;3.13;;;1.90;;
64029;SDS011;50277;52.064;4.492;2022-08-19T13:30:14;2.67;;;1.70;;
64029;SDS011;50277;52.064;4.492;2022-08-19T13:32:59;3.63;;;2.30;;
64029;SDS011;50277;52.064;4.492;2022-08-19T13:35:41;2.80;;;2.37;;
64029;SDS011;50277;52.064;4.492;2022-08-19T13:38:10;5.28;;;2.70;;
64029;SDS011;50277;52.064;4.492;2022-08-19T13:40:36;2.13;;;1.90;;
64029;SDS011;50277;52.064;4.492;2022-08-19T13:43:03;4.05;;;2.55;;
64029;SDS011;50277;52.064;4.492;2022-08-19T13:45:29;3.33;;;2.22;;
64029;SDS011;50277;52.064;4.492;2022-08-19T13:47:59;4.75;;;2.10;;
64029;SDS011;50277;52.064;4.492;2022-08-19T13:50:27;2.70;;;2.30;;
64029;SDS011;50277;52.064;4.492;2022-08-19T13:52:56;2.10;;;1.90;;
64029;SDS011;50277;52.064;4.492;2022-08-19T13:55:21;5.30;;;2.45;;
64029;SDS011;50277;52.064;4.492;2022-08-19T13:57:54;4.50;;;2.40;;
64029;SDS011;50277;52.064;4.492;2022-08-19T14:00:27;2.40;;;2.20;;
64029;SDS011;50277;52.064;4.492;2022-08-19T14:02:54;3.65;;;2.20;;
64029;SDS011;50277;52.064;4.492;2022-08-19T14:05:21;5.80;;;2.35;;
64029;SDS011;50277;52.064;4.492;2022-08-19T14:07:47;2.33;;;2.08;;
64029;SDS011;50277;52.064;4.492;2022-08-19T14:10:13;2.70;;;1.98;;
64029;SDS011;50277;52.064;4.492;2022-08-19T14:12:40;2.60;;;2.10;;
64029;SDS011;50277;52.064;4.492;2022-08-19T14:15:07;2.25;;;1.95;;
64029;SDS011;50277;52.064;4.492;2022-08-19T14:17:33;4.13;;;2.38;;
64029;SDS011;50277;52.064;4.492;2022-08-19T14:20:03;4.28;;;2.10;;
64029;SDS011;50277;52.064;4.492;2022-08-19T14:22:34;2.47;;;1.90;;
64029;SDS011;50277;52.064;4.492;2022-08-19T14:25:00;2.78;;;2.10;;
64029;SDS011;50277;52.064;4.492;2022-08-19T14:27:26;4.68;;;2.30;;
64029;SDS011;50277;52.064;4.492;2022-08-19T14:29:52;3.30;;;2.08;;
64029;SDS011;50277;52.064;4.492;2022-08-19T14:32:18;2.70;;;2.13;;
64029;SDS011;50277;52.064;4.492;2022-08-19T14:34:43;3.03;;;2.13;;
64029;SDS011;50277;52.064;4.492;2022-08-19T14:37:11;3.03;;;2.35;;
64029;SDS011;50277;52.064;4.492;2022-08-19T14:42:06;5.13;;;2.42;;
64029;SDS011;50277;52.064;4.492;2022-08-19T14:44:33;2.42;;;2.20;;
64029;SDS011;50277;52.064;4.492;2022-08-19T14:46:59;2.30;;;2.10;;
64029;SDS011;50277;52.064;4.492;2022-08-19T14:49:24;2.55;;;2.00;;
64029;SDS011;50277;52.064;4.492;2022-08-19T14:51:49;1.90;;;1.80;;
64029;SDS011;50277;52.064;4.492;2022-08-19T14:54:15;4.20;;;2.65;;
64029;SDS011;50277;52.064;4.492;2022-08-19T14:56:40;3.30;;;2.15;;
64029;SDS011;50277;52.064;4.492;2022-08-19T14:59:06;2.88;;;2.03;;
64029;SDS011;50277;52.064;4.492;2022-08-19T15:01:31;6.50;;;2.38;;